Time;durP1;ratioP1;P1;durP2;ratioP2;P2;SDS_P1;SDS_P2;PMS_P1;PMS_P2;Temp;Humidity;BMP_temperature;BMP_pressure;BME280_temperature;BME280_humidity;BME280_pressure;Samples;Min_cycle;Max_cycle;Signal;HPM_P1;HPM_P2
2022/10/21 00:00:16;;;;;;;23.10;13.07;;;;;;;8.80;100.00;100059.19;7390661;19;20387;-42
2022/10/21 00:02:45;;;;;;;17.83;11.90;;;;;;;8.78;100.00;100064.28;7392340;19;20421;-42
2022/10/21 00:05:15;;;;;;;23.97;12.57;;;;;;;8.78;100.00;100062.56;7391817;19;20427;-45
2022/10/21 00:07:45;;;;;;;20.03;13.00;;;;;;;8.87;100.00;100056.91;7392260;19;20748;-43
2022/10/21 00:10:15;;;;;;;19.00;12.60;;;;;;;8.83;100.00;100056.75;7390477;19;20387;-40
2022/10/21 00:12:47;;;;;;;21.33;12.87;;;;;;;8.85;100.00;100055.97;7392569;19;20399;-40
2022/10/21 00:15:17;;;;;;;20.80;12.93;;;;;;;8.88;100.00;100053.50;7392570;19;21035;-42
2022/10/21 00:17:46;;;;;;;21.87;13.40;;;;;;;8.88;100.00;100061.22;7392235;19;20408;-41
2022/10/21 00:20:16;;;;;;;18.43;12.37;;;;;;;8.91;100.00;100055.31;7390127;19;20411;-44
2022/10/21 00:22:45;;;;;;;17.20;11.77;;;;;;;8.91;100.00;100065.59;7392176;19;20400;-44
2022/10/21 00:25:15;;;;;;;27.63;12.53;;;;;;;8.96;100.00;100066.66;7387424;19;20816;-41
2022/10/21 00:27:47;;;;;;;20.13;12.60;;;;;;;9.05;100.00;100068.72;7391631;19;20388;-43
2022/10/21 00:30:17;;;;;;;23.27;13.30;;;;;;;9.00;100.00;100073.69;7389438;19;20399;-41
2022/10/21 00:32:46;;;;;;;19.17;12.30;;;;;;;8.89;100.00;100067.25;7391692;19;20384;-41
2022/10/21 00:35:19;;;;;;;18.87;12.80;;;;;;;8.91;100.00;100065.59;7388031;19;20446;-41
2022/10/21 00:37:48;;;;;;;18.97;12.30;;;;;;;8.90;100.00;100074.16;7392391;19;20395;-42
2022/10/21 00:40:17;;;;;;;25.97;12.80;;;;;;;8.77;100.00;100076.25;7391656;19;20936;-40
2022/10/21 00:42:50;;;;;;;18.07;12.60;;;;;;;8.70;100.00;100081.09;7391903;19;20392;-42
2022/10/21 00:45:22;;;;;;;21.50;13.10;;;;;;;8.75;100.00;100077.00;7388005;19;20427;-43
2022/10/21 00:47:56;;;;;;;19.93;12.87;;;;;;;8.83;100.00;100080.78;7391401;19;20408;-44
2022/10/21 00:50:29;;;;;;;21.93;13.60;;;;;;;8.71;100.00;100091.47;7389113;19;20414;-42
2022/10/21 00:53:00;;;;;;;21.30;12.80;;;;;;;8.94;100.00;100083.75;7391829;19;20400;-42
2022/10/21 00:55:31;;;;;;;20.87;12.93;;;;;;;9.07;100.00;100074.78;7387714;19;20391;-43
2022/10/21 00:58:04;;;;;;;18.60;13.00;;;;;;;8.92;100.00;100069.94;7395901;19;20396;-42
2022/10/21 01:00:34;;;;;;;17.90;11.30;;;;;;;8.78;100.00;100072.00;7389217;19;20411;-42
2022/10/21 01:03:03;;;;;;;19.70;12.40;;;;;;;8.83;100.00;100064.47;7391722;19;20404;-41
2022/10/21 01:05:33;;;;;;;20.37;12.20;;;;;;;8.90;100.00;100067.31;7387556;19;20944;-41
2022/10/21 01:08:02;;;;;;;21.77;13.07;;;;;;;8.81;100.00;100073.81;7391086;19;20411;-45
2022/10/21 01:10:32;;;;;;;25.00;12.30;;;;;;;8.75;100.00;100075.34;7388984;19;20434;-41
2022/10/21 01:13:13;;;;;;;19.00;12.60;;;;;;;8.71;100.00;100091.47;7392238;19;20410;-42
2022/10/21 01:15:47;;;;;;;15.77;11.67;;;;;;;8.47;100.00;100107.63;7386577;19;20534;-43
2022/10/21 01:18:20;;;;;;;17.57;12.30;;;;;;;8.59;100.00;100116.69;7391640;19;20415;-44
2022/10/21 01:21:05;;;;;;;25.63;13.57;;;;;;;8.59;100.00;100106.41;7388181;19;20905;-41
2022/10/21 01:24:11;;;;;;;19.40;12.03;;;;;;;8.73;100.00;100114.66;7391381;19;21038;-42
2022/10/21 01:26:51;;;;;;;19.37;12.07;;;;;;;8.91;100.00;100109.34;7387850;19;20541;-41
2022/10/21 01:30:03;;;;;;;22.83;13.57;;;;;;;8.89;100.00;100100.69;7390918;19;20395;-41
2022/10/21 01:32:42;;;;;;;20.10;12.10;;;;;;;8.85;100.00;100098.81;7392317;19;20438;-42
2022/10/21 01:35:16;;;;;;;23.87;13.80;;;;;;;8.90;100.00;100102.44;7393811;19;20435;-41
2022/10/21 01:37:53;;;;;;;26.00;13.23;;;;;;;8.84;100.00;100105.69;7393943;19;20407;-43
2022/10/21 01:40:26;;;;;;;20.40;13.17;;;;;;;8.92;100.00;100100.81;7394523;19;20400;-40
2022/10/21 01:42:58;;;;;;;27.83;13.43;;;;;;;8.92;100.00;100100.81;7397611;19;20499;-41
2022/10/21 01:45:31;;;;;;;17.17;12.27;;;;;;;8.73;100.00;100100.09;7393760;19;21364;-42
2022/10/21 01:48:05;;;;;;;21.30;12.37;;;;;;;8.81;100.00;100112.41;7397836;19;20402;-42
2022/10/21 01:50:36;;;;;;;25.10;13.77;;;;;;;8.81;100.00;100123.56;7395018;19;20398;-41
2022/10/21 01:53:10;;;;;;;19.77;12.53;;;;;;;8.97;100.00;100139.59;7395364;19;20392;-40
2022/10/21 01:55:40;;;;;;;21.00;13.20;;;;;;;8.94;100.00;100132.63;7392931;19;21105;-40
2022/10/21 01:58:14;;;;;;;21.20;12.50;;;;;;;8.92;100.00;100129.09;7397740;19;20423;-45
2022/10/21 02:00:45;;;;;;;18.37;12.50;;;;;;;8.98;100.00;100142.19;7397994;19;20416;-42
2022/10/21 02:03:19;;;;;;;22.10;13.27;;;;;;;8.87;100.00;100151.22;7397405;19;20785;-42
2022/10/21 02:05:48;;;;;;;20.13;12.80;;;;;;;8.84;100.00;100156.25;7392751;19;20414;-44
2022/10/21 02:08:18;;;;;;;20.00;13.17;;;;;;;8.95;100.00;100172.09;7397204;19;20407;-45
2022/10/21 02:10:50;;;;;;;21.13;13.47;;;;;;;8.81;100.00;100174.13;7393991;19;20426;-42
2022/10/21 02:13:25;;;;;;;21.10;12.97;;;;;;;8.87;100.00;100184.69;7395160;19;20384;-43
2022/10/21 02:15:56;;;;;;;25.00;13.40;;;;;;;8.95;100.00;100198.72;7392060;19;21189;-42
2022/10/21 02:18:28;;;;;;;21.13;13.57;;;;;;;9.00;100.00;100192.06;7400284;19;20418;-41
2022/10/21 02:21:00;;;;;;;22.40;14.00;;;;;;;8.98;100.00;100198.81;7394301;19;20407;-43
2022/10/21 02:23:37;;;;;;;25.93;14.20;;;;;;;8.97;100.00;100196.19;7396393;19;20399;-41
2022/10/21 02:26:06;;;;;;;22.20;13.17;;;;;;;8.94;100.00;100199.53;7389090;19;20430;-43
2022/10/21 02:28:36;;;;;;;21.47;13.53;;;;;;;8.86;100.00;100201.78;7395705;19;20419;-41
2022/10/21 02:31:23;;;;;;;24.37;13.70;;;;;;;8.83;100.00;100200.78;7393668;19;20790;-41
2022/10/21 02:34:01;;;;;;;22.30;13.20;;;;;;;8.77;100.00;100210.00;7395891;19;20411;-43
2022/10/21 02:36:39;;;;;;;24.47;13.70;;;;;;;8.71;100.00;100220.06;7393413;19;20419;-40
2022/10/21 02:39:13;;;;;;;20.50;13.67;;;;;;;8.70;100.00;100227.69;7394086;19;20392;-42
2022/10/21 02:41:43;;;;;;;22.93;13.70;;;;;;;8.80;100.00;100235.00;7392386;19;20411;-41
2022/10/21 02:44:13;;;;;;;22.60;14.40;;;;;;;8.91;100.00;100237.97;7394848;19;20384;-43
2022/10/21 02:46:44;;;;;;;22.37;14.40;;;;;;;8.99;100.00;100238.31;7393237;19;20530;-41
2022/10/21 02:49:16;;;;;;;25.80;14.40;;;;;;;8.94;100.00;100238.13;7395665;19;20392;-40
2022/10/21 02:51:47;;;;;;;27.90;15.80;;;;;;;8.77;100.00;100250.31;7393113;19;20438;-40
2022/10/21 02:54:16;;;;;;;25.77;14.50;;;;;;;8.79;100.00;100246.09;7394442;19;20415;-42
2022/10/21 02:56:45;;;;;;;24.63;14.37;;;;;;;8.85;100.00;100250.59;7371360;19;21192;-44
2022/10/21 02:59:15;;;;;;;23.73;14.33;;;;;;;8.83;100.00;100249.66;7395278;19;20392;-41
2022/10/21 03:01:44;;;;;;;22.47;14.53;;;;;;;8.74;100.00;100260.47;7392519;19;20415;-41
2022/10/21 03:04:16;;;;;;;22.60;14.80;;;;;;;8.80;100.00;100272.69;7394004;19;20410;-44
2022/10/21 03:06:46;;;;;;;25.07;14.30;;;;;;;8.88;100.00;100271.31;7392417;19;20849;-46
2022/10/21 03:09:15;;;;;;;26.77;14.67;;;;;;;8.99;100.00;100267.50;7395043;19;20392;-42
2022/10/21 03:11:44;;;;;;;23.03;13.10;;;;;;;8.84;100.00;100262.59;7388685;19;20415;-40
2022/10/21 03:14:14;;;;;;;23.80;14.33;;;;;;;8.77;100.00;100261.47;7393901;19;20388;-46
2022/10/21 03:16:44;;;;;;;24.60;15.60;;;;;;;8.80;100.00;100264.97;7391708;19;20446;-42
2022/10/21 03:19:13;;;;;;;29.53;14.47;;;;;;;8.85;100.00;100276.31;7394807;19;20399;-43
2022/10/21 03:21:45;;;;;;;25.03;15.03;;;;;;;8.85;100.00;100268.59;7392481;19;20442;-41
2022/10/21 03:24:15;;;;;;;26.10;15.40;;;;;;;8.78;100.00;100265.78;7393827;19;20418;-41
2022/10/21 03:26:59;;;;;;;23.37;14.83;;;;;;;8.81;100.00;100259.03;7392012;19;20422;-43
2022/10/21 03:29:29;;;;;;;23.00;13.60;;;;;;;8.79;100.00;100256.38;7394274;19;20406;-44
2022/10/21 03:31:58;;;;;;;29.40;14.60;;;;;;;8.81;100.00;100274.47;7391309;19;20399;-41
2022/10/21 03:34:27;;;;;;;24.20;14.47;;;;;;;8.79;100.00;100269.25;7393275;19;20443;-41
2022/10/21 03:36:59;;;;;;;25.60;14.70;;;;;;;8.86;100.00;100265.22;7392665;19;20464;-43
2022/10/21 03:39:29;;;;;;;24.90;14.57;;;;;;;8.86;100.00;100262.66;7394070;19;20964;-39
2022/10/21 03:41:58;;;;;;;29.73;15.93;;;;;;;8.82;100.00;100253.06;7390602;19;20407;-44
2022/10/21 03:44:28;;;;;;;23.53;13.57;;;;;;;8.78;100.00;100255.50;7393073;19;20770;-45
2022/10/21 03:46:57;;;;;;;26.60;14.13;;;;;;;8.85;100.00;100260.91;7391349;19;20443;-42
2022/10/21 03:49:26;;;;;;;25.13;14.63;;;;;;;9.01;100.00;100260.72;7393860;19;20391;-43
2022/10/21 03:51:56;;;;;;;26.33;15.03;;;;;;;8.94;100.00;100248.41;7388877;19;20782;-41
2022/10/21 03:54:28;;;;;;;22.83;15.23;;;;;;;8.78;100.00;100242.63;7389770;19;20438;-42
2022/10/21 03:56:57;;;;;;;26.47;14.53;;;;;;;8.78;100.00;100232.34;7391133;19;20463;-45
2022/10/21 03:59:27;;;;;;;24.43;13.63;;;;;;;8.86;100.00;100234.34;7393557;19;20388;-41
2022/10/21 04:01:56;;;;;;;34.00;14.57;;;;;;;8.81;100.00;100226.44;7390819;19;20415;-44
2022/10/21 04:04:26;;;;;;;27.30;15.10;;;;;;;8.82;100.00;100227.34;7392454;19;20415;-42
2022/10/21 04:06:56;;;;;;;27.00;15.80;;;;;;;8.75;100.00;100237.38;7390431;19;20424;-44
2022/10/21 04:09:28;;;;;;;25.07;15.00;;;;;;;8.75;100.00;100251.91;7393228;19;20788;-43
2022/10/21 04:11:57;;;;;;;27.40;15.20;;;;;;;8.83;100.00;100249.66;7387731;19;20415;-41
2022/10/21 04:14:27;;;;;;;25.27;14.97;;;;;;;8.72;100.00;100264.66;7391564;19;20423;-45
2022/10/21 04:16:56;;;;;;;27.17;15.90;;;;;;;8.74;100.00;100250.16;7389462;19;20415;-42
2022/10/21 04:19:35;;;;;;;25.40;15.30;;;;;;;8.65;100.00;100255.81;7392695;19;20383;-41
2022/10/21 04:22:05;;;;;;;29.83;15.97;;;;;;;8.61;100.00;100251.38;7389695;19;20442;-40
2022/10/21 04:24:37;;;;;;;25.63;14.00;;;;;;;8.75;100.00;100237.38;7391293;19;21290;-41
2022/10/21 04:27:06;;;;;;;26.70;15.63;;;;;;;8.65;100.00;100240.38;7389296;19;20418;-41
2022/10/21 04:29:35;;;;;;;24.33;14.20;;;;;;;8.57;100.00;100239.19;7392053;19;20392;-41
2022/10/21 04:32:05;;;;;;;23.00;14.80;;;;;;;8.69;100.00;100242.28;7389621;19;20840;-41
2022/10/21 04:34:34;;;;;;;23.80;15.50;;;;;;;8.70;100.00;100240.56;7390589;19;20439;-43
2022/10/21 04:37:03;;;;;;;26.00;14.73;;;;;;;8.67;100.00;100238.72;7389656;19;20445;-43
2022/10/21 04:39:36;;;;;;;26.77;15.93;;;;;;;8.63;100.00;100247.16;7395010;19;20395;-45
2022/10/21 04:42:06;;;;;;;26.17;14.43;;;;;;;8.74;100.00;100245.03;7384272;19;20423;-41
2022/10/21 04:44:35;;;;;;;25.13;15.30;;;;;;;8.87;100.00;100241.28;7390780;19;20960;-40
2022/10/21 04:47:04;;;;;;;23.10;15.03;;;;;;;8.97;100.00;100238.22;7388935;19;20419;-41
2022/10/21 04:49:34;;;;;;;26.47;15.13;;;;;;;8.98;100.00;100239.97;7392034;19;20753;-43
2022/10/21 04:52:03;;;;;;;32.20;15.80;;;;;;;8.93;100.00;100231.22;7389429;19;20423;-44
2022/10/21 04:54:33;;;;;;;26.17;15.50;;;;;;;8.73;100.00;100238.13;7389721;19;20419;-41
2022/10/21 04:57:05;;;;;;;25.67;14.70;;;;;;;8.69;100.00;100231.09;7389552;19;20454;-42
2022/10/21 04:59:34;;;;;;;28.43;14.70;;;;;;;8.74;100.00;100238.19;7391713;19;20396;-41
2022/10/21 05:02:04;;;;;;;24.53;14.40;;;;;;;8.64;100.00;100236.06;7388917;19;20407;-43
2022/10/21 05:04:33;;;;;;;26.30;14.97;;;;;;;8.66;100.00;100229.28;7390354;19;20423;-40
2022/10/21 05:07:02;;;;;;;24.80;15.37;;;;;;;8.68;100.00;100219.94;7391433;19;20432;-41
2022/10/21 05:09:35;;;;;;;27.70;15.83;;;;;;;8.75;100.00;100216.81;7399352;19;20407;-41
2022/10/21 05:12:07;;;;;;;24.17;14.87;;;;;;;8.69;100.00;100213.97;7395833;19;20767;-41
2022/10/21 05:14:36;;;;;;;31.70;15.23;;;;;;;8.64;100.00;100212.91;7395915;19;20470;-42
2022/10/21 05:17:06;;;;;;;28.20;14.67;;;;;;;8.54;100.00;100210.75;7395580;19;20419;-40
2022/10/21 05:19:36;;;;;;;26.77;14.50;;;;;;;8.48;100.00;100221.66;7398293;19;20384;-41
2022/10/21 05:22:05;;;;;;;25.43;15.20;;;;;;;8.59;100.00;100210.16;7396444;19;20407;-41
2022/10/21 05:24:35;;;;;;;30.20;15.37;;;;;;;8.81;100.00;100212.72;7397253;19;20446;-40
2022/10/21 05:27:07;;;;;;;28.10;15.53;;;;;;;8.78;100.00;100198.91;7395721;19;20442;-41
2022/10/21 05:29:36;;;;;;;27.07;15.03;;;;;;;8.63;100.00;100203.44;7398082;19;20415;-42
2022/10/21 05:32:06;;;;;;;25.43;15.43;;;;;;;8.64;100.00;100213.81;7392936;19;20398;-41
2022/10/21 05:34:36;;;;;;;30.23;15.50;;;;;;;8.47;100.00;100213.03;7395702;19;20427;-44
2022/10/21 05:37:05;;;;;;;24.17;15.00;;;;;;;8.43;100.00;100215.44;7395413;19;20403;-42
2022/10/21 05:39:35;;;;;;;26.50;15.37;;;;;;;8.44;100.00;100223.22;7398003;19;20399;-41
2022/10/21 05:42:07;;;;;;;165.30;76.90;;;;;;;8.45;100.00;100222.41;7394452;19;21226;-41
2022/10/21 05:44:36;;;;;;;35.37;18.90;;;;;;;8.93;100.00;100218.38;7396725;19;20419;-40
2022/10/21 05:47:06;;;;;;;50.93;26.87;;;;;;;8.94;100.00;100212.41;7394606;19;20979;-40
2022/10/21 05:49:37;;;;;;;98.80;51.90;;;;;;;9.42;100.00;100203.03;7397074;19;20419;-45
2022/10/21 05:52:07;;;;;;;71.80;38.80;;;;;;;9.38;100.00;100203.75;7396350;19;20451;-43
2022/10/21 05:54:36;;;;;;;36.37;21.50;;;;;;;9.46;100.00;100204.91;7394835;19;20801;-43
2022/10/21 05:57:08;;;;;;;37.77;22.67;;;;;;;9.64;100.00;100207.28;7394075;19;20403;-40
2022/10/21 05:59:38;;;;;;;41.73;24.13;;;;;;;9.84;100.00;100205.44;7396856;19;20971;-44
2022/10/21 06:02:08;;;;;;;25.60;15.23;;;;;;;9.77;100.00;100208.63;7394280;19;20419;-40
2022/10/21 06:04:38;;;;;;;26.80;15.83;;;;;;;9.71;100.00;100218.72;7395735;19;20423;-43
2022/10/21 06:07:07;;;;;;;23.67;14.73;;;;;;;9.34;100.00;100220.78;7393690;19;20428;-43
2022/10/21 06:09:37;;;;;;;25.70;14.70;;;;;;;9.76;100.00;100227.50;7396046;19;20384;-42
2022/10/21 06:12:09;;;;;;;23.20;14.83;;;;;;;9.81;100.00;100231.13;7391069;19;20442;-42
2022/10/21 06:14:38;;;;;;;24.77;14.23;;;;;;;10.02;100.00;100245.59;7394422;19;20454;-42
2022/10/21 06:17:07;;;;;;;23.70;13.70;;;;;;;10.24;100.00;100251.50;7391616;19;20434;-42
2022/10/21 06:19:37;;;;;;;22.43;13.37;;;;;;;9.30;100.00;100279.03;7395798;19;20388;-45
2022/10/21 06:22:06;;;;;;;25.30;13.50;;;;;;;8.80;100.00;100280.41;7392372;19;20455;-41
2022/10/21 06:24:36;;;;;;;20.93;13.70;;;;;;;8.90;100.00;100261.97;7393868;19;20427;-43
2022/10/21 06:27:05;;;;;;;34.73;19.53;;;;;;;9.19;100.00;100247.69;7392402;19;20411;-42
2022/10/21 06:29:37;;;;;;;69.50;41.43;;;;;;;9.32;100.00;100228.47;7394679;19;20402;-40
2022/10/21 06:32:07;;;;;;;42.37;24.80;;;;;;;9.50;100.00;100229.09;7394133;19;20555;-43
2022/10/21 06:34:36;;;;;;;97.97;47.97;;;;;;;9.88;100.00;100236.50;7394332;19;20439;-41
2022/10/21 06:37:06;;;;;;;70.50;37.73;;;;;;;9.93;100.00;100240.97;7396190;19;20454;-42
2022/10/21 06:39:35;;;;;;;21.70;13.50;;;;;;;9.57;100.00;100243.94;7395555;19;20400;-41
2022/10/21 06:42:05;;;;;;;24.30;14.33;;;;;;;9.09;100.00;100257.56;7386271;19;20458;-41
2022/10/21 06:44:37;;;;;;;27.20;15.87;;;;;;;9.02;100.00;100244.44;7394056;19;20423;-42
2022/10/21 06:47:06;;;;;;;24.87;16.30;;;;;;;9.07;100.00;100234.31;7394066;19;20482;-40
2022/10/21 06:49:36;;;;;;;29.00;17.00;;;;;;;8.98;100.00;100227.13;7395630;19;20423;-40
2022/10/21 06:52:05;;;;;;;26.70;16.73;;;;;;;9.04;100.00;100237.66;7392888;19;20454;-39
2022/10/21 06:54:35;;;;;;;32.67;18.83;;;;;;;8.94;100.00;100247.53;7396271;19;20427;-40
2022/10/21 06:57:05;;;;;;;34.30;16.97;;;;;;;9.05;100.00;100236.88;7392334;19;20415;-42
2022/10/21 06:59:37;;;;;;;29.30;16.33;;;;;;;9.12;100.00;100227.66;7394797;19;20426;-42
2022/10/21 07:02:06;;;;;;;27.70;15.80;;;;;;;9.08;100.00;100232.66;7392480;19;20431;-42
2022/10/21 07:04:36;;;;;;;29.40;15.40;;;;;;;9.12;100.00;100222.53;7393865;19;20438;-42
2022/10/21 07:07:05;;;;;;;30.40;16.00;;;;;;;8.99;100.00;100218.59;7392966;19;20460;-43
2022/10/21 07:09:35;;;;;;;27.93;17.47;;;;;;;9.16;100.00;100219.25;7394980;19;20735;-41
2022/10/21 07:12:05;;;;;;;34.70;20.13;;;;;;;9.50;100.00;100213.63;7391846;19;20407;-42
2022/10/21 07:14:37;;;;;;;41.37;24.03;;;;;;;9.61;100.00;100198.56;7392901;19;20454;-43
2022/10/21 07:17:07;;;;;;;66.37;36.63;;;;;;;9.68;100.00;100192.81;7391433;19;20415;-45
2022/10/21 07:19:36;;;;;;;29.80;17.00;;;;;;;9.56;100.00;100219.00;7394025;19;20384;-48
2022/10/21 07:22:05;;;;;;;28.43;16.60;;;;;;;9.31;100.00;100226.72;7389219;19;20443;-45
2022/10/21 07:24:35;;;;;;;33.83;18.43;;;;;;;9.39;100.00;100220.97;7392611;19;20434;-42
2022/10/21 07:27:05;;;;;;;23.83;14.83;;;;;;;9.09;100.00;100237.84;7391268;19;20898;-42
2022/10/21 07:29:37;;;;;;;25.23;16.40;;;;;;;8.87;100.00;100236.13;7392072;19;20780;-50
2022/10/21 07:32:09;;;;;;;33.63;17.97;;;;;;;8.90;100.00;100234.56;7390901;19;20757;-45
2022/10/21 07:34:38;;;;;;;27.60;17.07;;;;;;;9.15;100.00;100225.22;7392000;19;20426;-51
2022/10/21 07:37:08;;;;;;;24.20;15.83;;;;;;;9.18;100.00;100216.75;7390573;19;20441;-48
2022/10/21 07:39:37;;;;;;;28.70;15.77;;;;;;;9.34;100.00;100212.19;7393258;19;20422;-52
2022/10/21 07:42:08;;;;;;;27.23;15.87;;;;;;;9.06;100.00;100230.00;7387943;19;20451;-47
2022/10/21 07:44:42;;;;;;;32.57;17.10;;;;;;;8.91;100.00;100227.69;7392638;19;20422;-46
2022/10/21 07:47:12;;;;;;;29.67;16.40;;;;;;;8.97;100.00;100221.94;7389214;19;20430;-51
2022/10/21 07:49:41;;;;;;;34.63;19.10;;;;;;;9.24;100.00;100217.00;7392923;19;20406;-42
2022/10/21 07:52:10;;;;;;;28.90;16.80;;;;;;;9.41;100.00;100220.22;7390199;19;21089;-48
2022/10/21 07:54:40;;;;;;;40.63;22.50;;;;;;;9.40;100.00;100215.88;7395131;19;20411;-44
2022/10/21 07:57:10;;;;;;;29.67;17.80;;;;;;;9.48;100.00;100216.16;7389034;19;20757;-50
2022/10/21 07:59:39;;;;;;;37.43;21.77;;;;;;;9.52;100.00;100212.88;7392529;19;20387;-42
2022/10/21 08:02:17;;;;;;;30.40;17.50;;;;;;;9.47;100.00;100210.97;7388374;19;20982;-48
2022/10/21 08:04:47;;;;;;;31.40;16.30;;;;;;;9.63;100.00;100215.84;7391229;19;20418;-50
2022/10/21 08:07:17;;;;;;;28.60;17.67;;;;;;;9.62;100.00;100228.66;7386080;19;20412;-46
2022/10/21 08:09:46;;;;;;;32.47;18.40;;;;;;;9.61;100.00;100232.06;7392345;19;20396;-44
2022/10/21 08:12:16;;;;;;;32.37;18.37;;;;;;;9.47;100.00;100244.44;7379787;19;20418;-46
2022/10/21 08:14:45;;;;;;;34.27;18.30;;;;;;;9.38;100.00;100247.53;7391049;19;20424;-43
2022/10/21 08:17:17;;;;;;;30.63;18.00;;;;;;;9.47;100.00;100240.16;7387184;19;20956;-45
2022/10/21 08:19:48;;;;;;;31.37;18.10;;;;;;;9.57;100.00;100236.22;7392309;19;20399;-44
2022/10/21 08:22:17;;;;;;;32.90;19.13;;;;;;;9.73;100.00;100243.72;7387558;19;20415;-45
2022/10/21 08:24:47;;;;;;;34.70;20.00;;;;;;;9.88;100.00;100236.50;7392184;19;20773;-45
2022/10/21 08:27:16;;;;;;;31.63;19.30;;;;;;;10.00;100.00;100229.16;7389314;19;20439;-47
2022/10/21 08:29:46;;;;;;;30.50;18.93;;;;;;;10.09;100.00;100239.81;7395149;19;20752;-47
2022/10/21 08:32:18;;;;;;;30.93;18.77;;;;;;;10.09;100.00;100238.94;7387092;19;20422;-46
2022/10/21 08:34:47;;;;;;;32.60;17.70;;;;;;;10.08;100.00;100250.06;7390301;19;20809;-43
2022/10/21 08:37:16;;;;;;;28.47;17.50;;;;;;;10.15;100.00;100246.03;7388515;19;20407;-43
2022/10/21 08:39:51;;;;;;;32.23;17.70;;;;;;;10.07;100.00;100258.63;7393496;19;20423;-43
2022/10/21 08:42:21;;;;;;;24.17;16.03;;;;;;;10.09;100.00;100263.03;7391481;19;20469;-44
2022/10/21 08:44:55;;;;;;;24.47;16.57;;;;;;;10.23;100.00;100265.22;7401747;19;20427;-41
2022/10/21 08:47:43;;;;;;;31.30;17.43;;;;;;;10.10;100.00;100257.03;7396037;19;20410;-43
2022/10/21 08:50:15;;;;;;;28.80;17.00;;;;;;;10.22;100.00;100253.16;7398149;19;20716;-41
2022/10/21 08:52:47;;;;;;;27.97;17.20;;;;;;;10.26;100.00;100249.88;7401744;19;20392;-45
2022/10/21 08:55:21;;;;;;;32.53;18.37;;;;;;;10.23;100.00;100247.16;7394741;19;20810;-47
2022/10/21 08:57:52;;;;;;;27.83;17.90;;;;;;;10.34;100.00;100232.94;7397997;19;20735;-42
2022/10/21 09:00:24;;;;;;;30.43;18.63;;;;;;;10.49;100.00;100236.91;7395983;19;20400;-42
2022/10/21 09:03:20;;;;;;;30.03;18.10;;;;;;;10.54;100.00;100227.63;7398209;19;20398;-43
2022/10/21 09:06:07;;;;;;;34.50;18.90;;;;;;;10.51;100.00;100230.13;7391896;19;20411;-44
2022/10/21 09:08:39;;;;;;;27.90;17.93;;;;;;;10.43;100.00;100226.38;7398317;19;20380;-45
2022/10/21 09:11:18;;;;;;;26.90;17.70;;;;;;;10.48;100.00;100233.47;7394784;19;20415;-43
2022/10/21 09:14:21;;;;;;;31.97;19.60;;;;;;;10.51;100.00;100230.97;7397979;19;20916;-43
2022/10/21 09:16:55;;;;;;;31.50;18.10;;;;;;;10.51;100.00;100220.66;7392649;19;21039;-44
2022/10/21 09:19:37;;;;;;;31.60;17.03;;;;;;;10.60;100.00;100222.66;7398909;19;20742;-41
2022/10/21 09:22:17;;;;;;;33.87;18.10;;;;;;;10.66;100.00;100228.03;7395601;19;20411;-44
2022/10/21 09:25:10;;;;;;;34.20;19.20;;;;;;;10.66;100.00;100217.72;7396180;19;20791;-45
2022/10/21 09:27:40;;;;;;;31.00;17.67;;;;;;;10.71;100.00;100222.16;7396881;19;20423;-44
2022/10/21 09:30:25;;;;;;;26.90;17.10;;;;;;;10.71;100.00;100220.44;7393131;19;20408;-43
2022/10/21 09:32:59;;;;;;;35.30;18.03;;;;;;;10.71;100.00;100217.84;7398282;19;21200;-42
2022/10/21 09:35:35;;;;;;;24.30;16.73;;;;;;;10.78;100.00;100204.31;7393478;19;20440;-43
2022/10/21 09:38:10;;;;;;;29.27;18.00;;;;;;;10.82;100.00;100213.03;7398232;19;20717;-42
2022/10/21 09:40:39;;;;;;;28.13;18.67;;;;;;;10.88;100.00;100213.22;7391884;19;20407;-43
2022/10/21 09:43:17;;;;;;;32.30;19.00;;;;;;;10.92;100.00;100211.66;7397535;19;20387;-43
2022/10/21 09:45:47;;;;;;;33.50;20.87;;;;;;;10.86;100.00;100201.97;7392784;19;20425;-45
2022/10/21 09:48:26;;;;;;;28.67;16.80;;;;;;;10.88;100.00;100205.47;7397315;19;20922;-43
2022/10/21 09:51:02;;;;;;;30.53;18.13;;;;;;;10.87;100.00;100193.41;7395412;19;20949;-45
2022/10/21 09:53:34;;;;;;;25.20;16.10;;;;;;;10.93;100.00;100193.59;7392140;19;20395;-42
2022/10/21 09:56:08;;;;;;;28.60;18.20;;;;;;;11.07;100.00;100200.91;7392309;19;20427;-42
2022/10/21 09:58:47;;;;;;;30.70;19.43;;;;;;;11.07;100.00;100203.47;7396848;19;20408;-50
2022/10/21 10:01:19;;;;;;;31.20;16.47;;;;;;;11.11;100.00;100209.59;7394613;19;20415;-46
2022/10/21 10:03:49;;;;;;;23.43;16.17;;;;;;;11.25;100.00;100210.94;7396592;19;20411;-48
2022/10/21 10:06:37;;;;;;;27.30;17.20;;;;;;;11.23;100.00;100217.72;7392953;19;20413;-48
2022/10/21 10:09:09;;;;;;;27.17;17.50;;;;;;;11.36;100.00;100213.81;7397619;19;20399;-48
2022/10/21 10:11:50;;;;;;;30.90;18.70;;;;;;;11.47;100.00;100212.44;7394206;19;20444;-47
2022/10/21 10:14:26;;;;;;;34.03;18.30;;;;;;;11.53;100.00;100205.72;7396206;19;20405;-44
2022/10/21 10:16:55;;;;;;;26.60;17.33;;;;;;;11.68;100.00;100208.72;7392913;19;20430;-46
2022/10/21 10:19:26;;;;;;;27.50;17.57;;;;;;;11.85;100.00;100203.16;7397557;19;20389;-51
2022/10/21 10:22:18;;;;;;;25.03;16.80;;;;;;;11.88;100.00;100203.22;7394748;19;20422;-43
2022/10/21 10:24:50;;;;;;;25.03;15.70;;;;;;;11.88;100.00;100208.41;7395172;19;20395;-42
2022/10/21 10:27:22;;;;;;;25.17;15.93;;;;;;;11.86;100.00;100210.06;7392996;19;20418;-42
2022/10/21 10:29:55;;;;;;;29.53;16.87;;;;;;;11.95;100.00;100218.06;7395982;19;20411;-44
2022/10/21 10:32:27;;;;;;;27.80;15.70;;;;;;;12.07;100.00;100219.28;7392951;19;20433;-42
2022/10/21 10:34:58;;;;;;;24.43;15.23;;;;;;;12.11;100.00;100228.88;7394182;19;20409;-43
2022/10/21 10:37:33;;;;;;;22.57;15.50;;;;;;;12.37;100.00;100236.44;7393899;19;20443;-48
2022/10/21 10:40:05;;;;;;;22.33;15.20;;;;;;;12.58;100.00;100237.81;7393872;19;20450;-48
2022/10/21 10:42:37;;;;;;;31.57;15.27;;;;;;;12.74;100.00;100231.31;7390534;19;20824;-41
2022/10/21 10:45:15;;;;;;;23.33;15.57;;;;;;;12.86;100.00;100233.34;7395520;19;20423;-42
2022/10/21 10:47:48;;;;;;;22.83;14.77;;;;;;;12.91;100.00;100236.91;7396363;19;20818;-48
2022/10/21 10:50:41;;;;;;;19.17;13.33;;;;;;;12.98;100.00;100248.28;7393513;19;20416;-44
2022/10/21 10:53:28;;;;;;;21.00;14.20;;;;;;;13.03;100.00;100250.13;7398218;19;20397;-49
2022/10/21 10:56:04;;;;;;;21.23;14.47;;;;;;;13.04;100.00;100259.69;7388372;19;20932;-43
2022/10/21 10:58:36;;;;;;;26.77;15.17;;;;;;;13.23;100.00;100254.94;7394612;19;20385;-45
2022/10/21 11:01:10;;;;;;;24.97;14.60;;;;;;;13.39;100.00;100252.66;7394865;19;20450;-43
2022/10/21 11:03:43;;;;;;;24.03;14.40;;;;;;;13.57;100.00;100244.44;7393317;19;20384;-44
2022/10/21 11:06:17;;;;;;;22.57;13.23;;;;;;;13.62;100.00;100254.09;7389415;19;20968;-48
2022/10/21 11:08:54;;;;;;;22.40;13.90;;;;;;;13.76;100.00;100248.31;7394006;19;20753;-44
2022/10/21 11:11:27;;;;;;;23.40;13.63;;;;;;;13.77;100.00;100250.06;7392602;19;20441;-48
2022/10/21 11:13:57;;;;;;;22.43;13.23;;;;;;;13.61;100.00;100252.34;7394477;19;20950;-46
2022/10/21 11:16:55;;;;;;;19.37;13.30;;;;;;;13.93;100.00;100258.16;7391680;19;20435;-47
2022/10/21 11:19:34;;;;;;;19.77;12.67;;;;;;;14.03;100.00;100249.69;7394630;19;20396;-43
2022/10/21 11:22:12;;;;;;;18.10;13.10;;;;;;;13.82;100.00;100261.41;7391493;19;20421;-45
2022/10/21 11:24:58;;;;;;;22.87;13.13;;;;;;;13.69;100.00;100264.59;7392044;19;20425;-48
2022/10/21 11:27:47;;;;;;;22.23;13.07;;;;;;;13.74;100.00;100252.59;7390347;19;20434;-50
2022/10/21 11:30:19;;;;;;;20.80;14.13;;;;;;;13.80;100.00;100247.53;7391329;19;20413;-49